sensor_id;sensor_type;location;lat;lon;timestamp;P1;durP1;ratioP1;P2;durP2;ratioP2
12407;SDS011;6268;48.188;17.134;2023-11-21T00:00:06;3.00;;;1.90;;
12407;SDS011;6268;48.188;17.134;2023-11-21T00:02:39;4.68;;;2.55;;
12407;SDS011;6268;48.188;17.134;2023-11-21T00:05:08;4.18;;;2.10;;
12407;SDS011;6268;48.188;17.134;2023-11-21T00:07:37;3.17;;;1.95;;
12407;SDS011;6268;48.188;17.134;2023-11-21T00:10:06;3.38;;;2.20;;
12407;SDS011;6268;48.188;17.134;2023-11-21T00:12:37;3.17;;;2.20;;
12407;SDS011;6268;48.188;17.134;2023-11-21T00:15:09;3.33;;;2.15;;
12407;SDS011;6268;48.188;17.134;2023-11-21T00:17:38;4.45;;;2.30;;
12407;SDS011;6268;48.188;17.134;2023-11-21T00:20:07;3.50;;;2.30;;
12407;SDS011;6268;48.188;17.134;2023-11-21T00:22:39;4.10;;;1.98;;
12407;SDS011;6268;48.188;17.134;2023-11-21T00:25:08;2.38;;;2.17;;
12407;SDS011;6268;48.188;17.134;2023-11-21T00:27:38;2.22;;;1.80;;
12407;SDS011;6268;48.188;17.134;2023-11-21T00:30:07;3.55;;;2.20;;
12407;SDS011;6268;48.188;17.134;2023-11-21T00:32:36;3.00;;;2.20;;
12407;SDS011;6268;48.188;17.134;2023-11-21T00:35:05;2.13;;;2.03;;
12407;SDS011;6268;48.188;17.134;2023-11-21T00:37:34;4.38;;;2.72;;
12407;SDS011;6268;48.188;17.134;2023-11-21T00:40:02;5.65;;;4.00;;
12407;SDS011;6268;48.188;17.134;2023-11-21T00:42:32;4.55;;;3.17;;
12407;SDS011;6268;48.188;17.134;2023-11-21T00:45:02;2.55;;;2.00;;
12407;SDS011;6268;48.188;17.134;2023-11-21T00:47:32;4.80;;;2.33;;
12407;SDS011;6268;48.188;17.134;2023-11-21T00:50:01;3.42;;;2.20;;
12407;SDS011;6268;48.188;17.134;2023-11-21T00:52:29;2.67;;;1.60;;
12407;SDS011;6268;48.188;17.134;2023-11-21T00:54:58;5.88;;;2.40;;
12407;SDS011;6268;48.188;17.134;2023-11-21T00:57:27;2.60;;;1.98;;
12407;SDS011;6268;48.188;17.134;2023-11-21T00:59:55;3.58;;;2.15;;
12407;SDS011;6268;48.188;17.134;2023-11-21T01:02:25;2.88;;;1.83;;
12407;SDS011;6268;48.188;17.134;2023-11-21T01:04:53;2.38;;;2.13;;
12407;SDS011;6268;48.188;17.134;2023-11-21T01:07:21;2.20;;;1.98;;
12407;SDS011;6268;48.188;17.134;2023-11-21T01:09:50;3.30;;;2.05;;
12407;SDS011;6268;48.188;17.134;2023-11-21T01:12:19;3.85;;;2.25;;
12407;SDS011;6268;48.188;17.134;2023-11-21T01:14:47;3.15;;;2.00;;
12407;SDS011;6268;48.188;17.134;2023-11-21T01:17:16;3.67;;;2.30;;
12407;SDS011;6268;48.188;17.134;2023-11-21T01:19:50;3.88;;;2.08;;
12407;SDS011;6268;48.188;17.134;2023-11-21T01:22:18;3.17;;;2.08;;
12407;SDS011;6268;48.188;17.134;2023-11-21T01:24:52;4.90;;;1.95;;
12407;SDS011;6268;48.188;17.134;2023-11-21T01:27:21;2.60;;;2.30;;
12407;SDS011;6268;48.188;17.134;2023-11-21T01:29:49;2.95;;;2.10;;
12407;SDS011;6268;48.188;17.134;2023-11-21T01:32:20;2.92;;;2.15;;
12407;SDS011;6268;48.188;17.134;2023-11-21T01:34:50;3.28;;;2.60;;
12407;SDS011;6268;48.188;17.134;2023-11-21T01:37:18;2.47;;;1.90;;
12407;SDS011;6268;48.188;17.134;2023-11-21T01:39:48;2.20;;;1.92;;
12407;SDS011;6268;48.188;17.134;2023-11-21T01:42:16;4.07;;;1.90;;
12407;SDS011;6268;48.188;17.134;2023-11-21T01:44:45;2.00;;;1.65;;
12407;SDS011;6268;48.188;17.134;2023-11-21T01:47:13;2.03;;;1.85;;
12407;SDS011;6268;48.188;17.134;2023-11-21T01:49:43;2.08;;;1.60;;
12407;SDS011;6268;48.188;17.134;2023-11-21T01:52:14;2.45;;;1.67;;
12407;SDS011;6268;48.188;17.134;2023-11-21T01:54:43;4.72;;;1.83;;
12407;SDS011;6268;48.188;17.134;2023-11-21T01:57:11;2.90;;;1.45;;
12407;SDS011;6268;48.188;17.134;2023-11-21T01:59:40;4.00;;;2.17;;
12407;SDS011;6268;48.188;17.134;2023-11-21T02:02:59;2.63;;;1.67;;
12407;SDS011;6268;48.188;17.134;2023-11-21T02:05:28;3.63;;;1.98;;
12407;SDS011;6268;48.188;17.134;2023-11-21T02:07:58;2.55;;;1.88;;
12407;SDS011;6268;48.188;17.134;2023-11-21T02:10:27;1.80;;;1.70;;
12407;SDS011;6268;48.188;17.134;2023-11-21T02:12:58;1.80;;;1.50;;
12407;SDS011;6268;48.188;17.134;2023-11-21T02:15:29;4.45;;;1.77;;
12407;SDS011;6268;48.188;17.134;2023-11-21T02:17:58;1.98;;;1.27;;
12407;SDS011;6268;48.188;17.134;2023-11-21T02:20:27;2.03;;;1.70;;
12407;SDS011;6268;48.188;17.134;2023-11-21T02:22:57;2.78;;;1.70;;
12407;SDS011;6268;48.188;17.134;2023-11-21T02:25:27;1.85;;;1.65;;
12407;SDS011;6268;48.188;17.134;2023-11-21T02:27:57;4.30;;;2.00;;
12407;SDS011;6268;48.188;17.134;2023-11-21T02:30:27;1.98;;;1.60;;
12407;SDS011;6268;48.188;17.134;2023-11-21T02:32:59;4.50;;;1.80;;
12407;SDS011;6268;48.188;17.134;2023-11-21T02:35:28;1.88;;;1.48;;
12407;SDS011;6268;48.188;17.134;2023-11-21T02:37:59;3.53;;;1.50;;
12407;SDS011;6268;48.188;17.134;2023-11-21T02:40:28;2.70;;;1.60;;
12407;SDS011;6268;48.188;17.134;2023-11-21T02:42:57;2.30;;;1.85;;
12407;SDS011;6268;48.188;17.134;2023-11-21T02:45:26;1.65;;;1.50;;
12407;SDS011;6268;48.188;17.134;2023-11-21T02:47:54;4.07;;;1.90;;
12407;SDS011;6268;48.188;17.134;2023-11-21T02:50:25;2.05;;;1.58;;
12407;SDS011;6268;48.188;17.134;2023-11-21T02:52:54;3.03;;;1.45;;
12407;SDS011;6268;48.188;17.134;2023-11-21T02:55:26;4.18;;;1.92;;
12407;SDS011;6268;48.188;17.134;2023-11-21T02:57:54;3.03;;;1.67;;
12407;SDS011;6268;48.188;17.134;2023-11-21T03:00:24;2.50;;;1.98;;
12407;SDS011;6268;48.188;17.134;2023-11-21T03:02:54;2.20;;;1.80;;
12407;SDS011;6268;48.188;17.134;2023-11-21T03:05:23;2.13;;;1.67;;
12407;SDS011;6268;48.188;17.134;2023-11-21T03:08:16;2.10;;;1.63;;
12407;SDS011;6268;48.188;17.134;2023-11-21T03:11:09;1.70;;;1.60;;
12407;SDS011;6268;48.188;17.134;2023-11-21T03:14:28;1.45;;;1.35;;
12407;SDS011;6268;48.188;17.134;2023-11-21T03:17:45;2.08;;;1.67;;
12407;SDS011;6268;48.188;17.134;2023-11-21T03:21:04;2.13;;;1.77;;
12407;SDS011;6268;48.188;17.134;2023-11-21T03:24:24;2.88;;;1.88;;
12407;SDS011;6268;48.188;17.134;2023-11-21T03:27:43;3.58;;;2.50;;
12407;SDS011;6268;48.188;17.134;2023-11-21T03:31:02;2.22;;;1.90;;
12407;SDS011;6268;48.188;17.134;2023-11-21T03:34:23;1.55;;;1.20;;
12407;SDS011;6268;48.188;17.134;2023-11-21T03:36:53;2.13;;;1.27;;
12407;SDS011;6268;48.188;17.134;2023-11-21T03:39:21;3.05;;;1.50;;
12407;SDS011;6268;48.188;17.134;2023-11-21T03:41:51;1.20;;;1.10;;
12407;SDS011;6268;48.188;17.134;2023-11-21T03:44:21;2.10;;;1.40;;
12407;SDS011;6268;48.188;17.134;2023-11-21T03:46:49;2.22;;;1.10;;
12407;SDS011;6268;48.188;17.134;2023-11-21T03:49:18;1.90;;;1.27;;
12407;SDS011;6268;48.188;17.134;2023-11-21T03:51:46;2.58;;;1.30;;
12407;SDS011;6268;48.188;17.134;2023-11-21T03:54:15;1.85;;;1.48;;
12407;SDS011;6268;48.188;17.134;2023-11-21T03:56:43;2.17;;;1.30;;
12407;SDS011;6268;48.188;17.134;2023-11-21T03:59:11;1.92;;;1.35;;
12407;SDS011;6268;48.188;17.134;2023-11-21T04:01:41;2.53;;;2.10;;
12407;SDS011;6268;48.188;17.134;2023-11-21T04:04:09;2.35;;;1.40;;
12407;SDS011;6268;48.188;17.134;2023-11-21T04:06:38;2.15;;;1.33;;
12407;SDS011;6268;48.188;17.134;2023-11-21T04:09:07;1.40;;;0.90;;
12407;SDS011;6268;48.188;17.134;2023-11-21T04:11:35;1.73;;;1.13;;
12407;SDS011;6268;48.188;17.134;2023-11-21T04:14:04;1.33;;;1.23;;
12407;SDS011;6268;48.188;17.134;2023-11-21T04:16:32;1.83;;;1.60;;
12407;SDS011;6268;48.188;17.134;2023-11-21T04:19:02;1.80;;;1.40;;
12407;SDS011;6268;48.188;17.134;2023-11-21T04:21:30;1.98;;;1.15;;
12407;SDS011;6268;48.188;17.134;2023-11-21T04:23:59;1.40;;;1.20;;
12407;SDS011;6268;48.188;17.134;2023-11-21T04:26:28;1.70;;;1.08;;
12407;SDS011;6268;48.188;17.134;2023-11-21T04:28:56;1.75;;;1.38;;
12407;SDS011;6268;48.188;17.134;2023-11-21T04:31:24;2.08;;;1.10;;
12407;SDS011;6268;48.188;17.134;2023-11-21T04:33:53;1.45;;;1.20;;
12407;SDS011;6268;48.188;17.134;2023-11-21T04:36:23;1.55;;;1.17;;
12407;SDS011;6268;48.188;17.134;2023-11-21T04:38:51;1.20;;;1.10;;
12407;SDS011;6268;48.188;17.134;2023-11-21T04:41:19;2.05;;;1.63;;
12407;SDS011;6268;48.188;17.134;2023-11-21T04:43:46;25.15;;;20.35;;
12407;SDS011;6268;48.188;17.134;2023-11-21T04:46:15;1.88;;;1.77;;
12407;SDS011;6268;48.188;17.134;2023-11-21T04:48:44;2.20;;;1.38;;
12407;SDS011;6268;48.188;17.134;2023-11-21T04:51:13;10.35;;;8.48;;
12407;SDS011;6268;48.188;17.134;2023-11-21T04:53:43;38.50;;;31.40;;
12407;SDS011;6268;48.188;17.134;2023-11-21T04:56:11;52.63;;;44.60;;
12407;SDS011;6268;48.188;17.134;2023-11-21T04:58:40;28.83;;;25.70;;
12407;SDS011;6268;48.188;17.134;2023-11-21T05:01:08;11.20;;;10.02;;
12407;SDS011;6268;48.188;17.134;2023-11-21T05:03:37;9.73;;;8.45;;
12407;SDS011;6268;48.188;17.134;2023-11-21T05:06:06;8.60;;;7.80;;
12407;SDS011;6268;48.188;17.134;2023-11-21T05:08:37;4.35;;;4.05;;
12407;SDS011;6268;48.188;17.134;2023-11-21T05:11:06;2.65;;;1.70;;
12407;SDS011;6268;48.188;17.134;2023-11-21T05:13:37;2.13;;;1.45;;
12407;SDS011;6268;48.188;17.134;2023-11-21T05:16:06;1.50;;;1.40;;
12407;SDS011;6268;48.188;17.134;2023-11-21T05:18:35;2.72;;;1.52;;
12407;SDS011;6268;48.188;17.134;2023-11-21T05:21:03;1.95;;;1.20;;
12407;SDS011;6268;48.188;17.134;2023-11-21T05:23:33;1.55;;;1.30;;
12407;SDS011;6268;48.188;17.134;2023-11-21T05:26:01;1.85;;;1.48;;
12407;SDS011;6268;48.188;17.134;2023-11-21T05:28:31;2.75;;;1.60;;
12407;SDS011;6268;48.188;17.134;2023-11-21T05:30:59;1.60;;;1.50;;
12407;SDS011;6268;48.188;17.134;2023-11-21T05:33:41;2.72;;;2.38;;
12407;SDS011;6268;48.188;17.134;2023-11-21T05:36:10;1.88;;;1.15;;
12407;SDS011;6268;48.188;17.134;2023-11-21T05:38:38;1.55;;;1.10;;
12407;SDS011;6268;48.188;17.134;2023-11-21T05:41:08;2.00;;;1.38;;
12407;SDS011;6268;48.188;17.134;2023-11-21T05:43:41;1.60;;;1.40;;
12407;SDS011;6268;48.188;17.134;2023-11-21T05:46:09;1.70;;;1.60;;
12407;SDS011;6268;48.188;17.134;2023-11-21T05:48:38;1.80;;;1.70;;
12407;SDS011;6268;48.188;17.134;2023-11-21T05:51:06;5.63;;;3.85;;
12407;SDS011;6268;48.188;17.134;2023-11-21T05:53:35;1.67;;;1.58;;
12407;SDS011;6268;48.188;17.134;2023-11-21T05:56:04;1.90;;;1.52;;
12407;SDS011;6268;48.188;17.134;2023-11-21T05:58:32;2.88;;;1.45;;
12407;SDS011;6268;48.188;17.134;2023-11-21T06:01:04;2.83;;;1.23;;
12407;SDS011;6268;48.188;17.134;2023-11-21T06:03:35;1.48;;;1.20;;
12407;SDS011;6268;48.188;17.134;2023-11-21T06:06:05;1.88;;;1.50;;
12407;SDS011;6268;48.188;17.134;2023-11-21T06:08:34;2.17;;;1.25;;
12407;SDS011;6268;48.188;17.134;2023-11-21T06:11:02;2.15;;;1.23;;
12407;SDS011;6268;48.188;17.134;2023-11-21T06:13:31;2.38;;;1.45;;
12407;SDS011;6268;48.188;17.134;2023-11-21T06:15:59;1.40;;;1.10;;
12407;SDS011;6268;48.188;17.134;2023-11-21T06:18:29;2.45;;;1.70;;
12407;SDS011;6268;48.188;17.134;2023-11-21T06:20:57;1.45;;;1.35;;
12407;SDS011;6268;48.188;17.134;2023-11-21T06:23:27;2.92;;;1.80;;
12407;SDS011;6268;48.188;17.134;2023-11-21T06:25:55;1.90;;;1.77;;
12407;SDS011;6268;48.188;17.134;2023-11-21T06:28:23;1.92;;;1.83;;
12407;SDS011;6268;48.188;17.134;2023-11-21T06:30:52;2.15;;;1.65;;
12407;SDS011;6268;48.188;17.134;2023-11-21T06:33:20;1.75;;;1.65;;
12407;SDS011;6268;48.188;17.134;2023-11-21T06:35:50;5.82;;;4.20;;
12407;SDS011;6268;48.188;17.134;2023-11-21T06:38:19;2.90;;;2.40;;
12407;SDS011;6268;48.188;17.134;2023-11-21T06:40:47;1.85;;;1.75;;
12407;SDS011;6268;48.188;17.134;2023-11-21T06:43:15;3.78;;;1.83;;
12407;SDS011;6268;48.188;17.134;2023-11-21T06:45:44;2.63;;;1.92;;
12407;SDS011;6268;48.188;17.134;2023-11-21T06:48:12;2.25;;;1.95;;
12407;SDS011;6268;48.188;17.134;2023-11-21T06:50:41;2.88;;;1.55;;
12407;SDS011;6268;48.188;17.134;2023-11-21T06:53:11;2.47;;;2.20;;
12407;SDS011;6268;48.188;17.134;2023-11-21T06:55:40;4.13;;;3.47;;
12407;SDS011;6268;48.188;17.134;2023-11-21T06:58:08;4.95;;;3.30;;
12407;SDS011;6268;48.188;17.134;2023-11-21T07:00:36;3.17;;;2.53;;
12407;SDS011;6268;48.188;17.134;2023-11-21T07:03:05;2.80;;;2.05;;
12407;SDS011;6268;48.188;17.134;2023-11-21T07:05:33;3.38;;;1.70;;
12407;SDS011;6268;48.188;17.134;2023-11-21T07:08:02;1.70;;;1.60;;
12407;SDS011;6268;48.188;17.134;2023-11-21T07:10:32;2.95;;;1.70;;
12407;SDS011;6268;48.188;17.134;2023-11-21T07:13:01;2.40;;;2.00;;
12407;SDS011;6268;48.188;17.134;2023-11-21T07:15:29;4.70;;;2.08;;
12407;SDS011;6268;48.188;17.134;2023-11-21T07:17:58;5.30;;;2.78;;
12407;SDS011;6268;48.188;17.134;2023-11-21T07:20:26;4.43;;;1.90;;
12407;SDS011;6268;48.188;17.134;2023-11-21T07:22:56;3.05;;;2.25;;
12407;SDS011;6268;48.188;17.134;2023-11-21T07:25:26;2.67;;;1.30;;
12407;SDS011;6268;48.188;17.134;2023-11-21T07:27:55;1.33;;;1.10;;
12407;SDS011;6268;48.188;17.134;2023-11-21T07:30:24;1.35;;;1.10;;
12407;SDS011;6268;48.188;17.134;2023-11-21T07:32:52;2.28;;;1.30;;
12407;SDS011;6268;48.188;17.134;2023-11-21T07:35:20;2.15;;;1.17;;
12407;SDS011;6268;48.188;17.134;2023-11-21T07:37:49;2.28;;;1.08;;
12407;SDS011;6268;48.188;17.134;2023-11-21T07:40:17;2.35;;;1.30;;
12407;SDS011;6268;48.188;17.134;2023-11-21T07:42:45;2.88;;;1.30;;
12407;SDS011;6268;48.188;17.134;2023-11-21T07:45:16;1.90;;;1.30;;
12407;SDS011;6268;48.188;17.134;2023-11-21T07:47:44;1.42;;;1.05;;
12407;SDS011;6268;48.188;17.134;2023-11-21T07:50:13;1.20;;;0.90;;
12407;SDS011;6268;48.188;17.134;2023-11-21T07:52:41;1.55;;;1.00;;
12407;SDS011;6268;48.188;17.134;2023-11-21T07:55:10;1.60;;;1.23;;
12407;SDS011;6268;48.188;17.134;2023-11-21T07:57:40;1.67;;;1.15;;
12407;SDS011;6268;48.188;17.134;2023-11-21T08:00:09;1.75;;;1.10;;
12407;SDS011;6268;48.188;17.134;2023-11-21T08:02:40;2.55;;;1.23;;
12407;SDS011;6268;48.188;17.134;2023-11-21T08:05:12;3.05;;;1.30;;
12407;SDS011;6268;48.188;17.134;2023-11-21T08:07:53;1.63;;;1.08;;
12407;SDS011;6268;48.188;17.134;2023-11-21T08:10:22;1.30;;;1.20;;
12407;SDS011;6268;48.188;17.134;2023-11-21T08:12:51;1.83;;;1.30;;
12407;SDS011;6268;48.188;17.134;2023-11-21T08:15:20;2.90;;;1.15;;
12407;SDS011;6268;48.188;17.134;2023-11-21T08:17:49;2.55;;;1.25;;
12407;SDS011;6268;48.188;17.134;2023-11-21T08:20:18;1.27;;;1.00;;
12407;SDS011;6268;48.188;17.134;2023-11-21T08:22:49;1.63;;;0.95;;
12407;SDS011;6268;48.188;17.134;2023-11-21T08:25:18;3.40;;;1.55;;
12407;SDS011;6268;48.188;17.134;2023-11-21T08:27:49;2.45;;;1.30;;
12407;SDS011;6268;48.188;17.134;2023-11-21T08:30:18;1.88;;;1.13;;
12407;SDS011;6268;48.188;17.134;2023-11-21T08:32:50;1.45;;;1.10;;
12407;SDS011;6268;48.188;17.134;2023-11-21T08:35:20;1.90;;;1.20;;
12407;SDS011;6268;48.188;17.134;2023-11-21T08:37:50;2.22;;;1.30;;
12407;SDS011;6268;48.188;17.134;2023-11-21T08:40:19;5.45;;;1.60;;
12407;SDS011;6268;48.188;17.134;2023-11-21T08:42:48;2.17;;;1.08;;
12407;SDS011;6268;48.188;17.134;2023-11-21T08:45:18;2.70;;;1.38;;
12407;SDS011;6268;48.188;17.134;2023-11-21T08:47:46;2.05;;;1.63;;
12407;SDS011;6268;48.188;17.134;2023-11-21T08:50:16;2.78;;;1.55;;
12407;SDS011;6268;48.188;17.134;2023-11-21T08:52:45;3.50;;;1.73;;
12407;SDS011;6268;48.188;17.134;2023-11-21T08:55:14;1.73;;;0.93;;
12407;SDS011;6268;48.188;17.134;2023-11-21T08:57:43;2.00;;;1.20;;
12407;SDS011;6268;48.188;17.134;2023-11-21T09:00:13;1.80;;;1.10;;
12407;SDS011;6268;48.188;17.134;2023-11-21T09:02:44;3.60;;;3.08;;
12407;SDS011;6268;48.188;17.134;2023-11-21T09:05:13;2.13;;;1.30;;
12407;SDS011;6268;48.188;17.134;2023-11-21T09:07:43;3.03;;;1.40;;
12407;SDS011;6268;48.188;17.134;2023-11-21T09:10:15;1.92;;;1.45;;
12407;SDS011;6268;48.188;17.134;2023-11-21T09:12:43;1.23;;;1.10;;
12407;SDS011;6268;48.188;17.134;2023-11-21T09:15:12;2.40;;;1.00;;
12407;SDS011;6268;48.188;17.134;2023-11-21T09:17:41;1.85;;;1.00;;
12407;SDS011;6268;48.188;17.134;2023-11-21T09:20:11;1.40;;;1.00;;
12407;SDS011;6268;48.188;17.134;2023-11-21T09:22:41;2.00;;;0.90;;
12407;SDS011;6268;48.188;17.134;2023-11-21T09:25:13;1.67;;;1.05;;
12407;SDS011;6268;48.188;17.134;2023-11-21T09:27:41;3.15;;;1.05;;
12407;SDS011;6268;48.188;17.134;2023-11-21T09:30:10;1.42;;;0.98;;
12407;SDS011;6268;48.188;17.134;2023-11-21T09:32:41;2.33;;;1.30;;
12407;SDS011;6268;48.188;17.134;2023-11-21T09:35:12;2.22;;;0.90;;
12407;SDS011;6268;48.188;17.134;2023-11-21T09:37:44;1.13;;;0.98;;
12407;SDS011;6268;48.188;17.134;2023-11-21T09:40:16;0.88;;;0.80;;
12407;SDS011;6268;48.188;17.134;2023-11-21T09:42:50;0.88;;;0.80;;
12407;SDS011;6268;48.188;17.134;2023-11-21T09:45:24;2.10;;;1.05;;
12407;SDS011;6268;48.188;17.134;2023-11-21T09:47:54;1.33;;;0.80;;
12407;SDS011;6268;48.188;17.134;2023-11-21T09:50:24;1.67;;;0.90;;
12407;SDS011;6268;48.188;17.134;2023-11-21T09:53:05;2.50;;;1.30;;
12407;SDS011;6268;48.188;17.134;2023-11-21T09:55:42;1.50;;;1.00;;
12407;SDS011;6268;48.188;17.134;2023-11-21T09:58:11;1.38;;;0.90;;
12407;SDS011;6268;48.188;17.134;2023-11-21T10:00:41;2.88;;;1.25;;
12407;SDS011;6268;48.188;17.134;2023-11-21T10:03:11;8.52;;;6.93;;
12407;SDS011;6268;48.188;17.134;2023-11-21T10:05:41;22.00;;;13.88;;
12407;SDS011;6268;48.188;17.134;2023-11-21T10:08:13;3.17;;;2.78;;
12407;SDS011;6268;48.188;17.134;2023-11-21T10:10:43;1.30;;;1.10;;
12407;SDS011;6268;48.188;17.134;2023-11-21T10:13:15;1.73;;;1.17;;
12407;SDS011;6268;48.188;17.134;2023-11-21T10:15:48;1.85;;;1.23;;
12407;SDS011;6268;48.188;17.134;2023-11-21T10:18:18;2.53;;;2.25;;
12407;SDS011;6268;48.188;17.134;2023-11-21T10:20:49;3.03;;;1.70;;
12407;SDS011;6268;48.188;17.134;2023-11-21T10:23:21;1.30;;;1.05;;
12407;SDS011;6268;48.188;17.134;2023-11-21T10:25:50;1.30;;;1.05;;
12407;SDS011;6268;48.188;17.134;2023-11-21T10:28:20;1.80;;;1.30;;
12407;SDS011;6268;48.188;17.134;2023-11-21T10:30:49;2.05;;;1.10;;
12407;SDS011;6268;48.188;17.134;2023-11-21T10:33:17;1.85;;;1.30;;
12407;SDS011;6268;48.188;17.134;2023-11-21T10:35:54;1.48;;;1.10;;
12407;SDS011;6268;48.188;17.134;2023-11-21T10:38:24;2.25;;;1.27;;
12407;SDS011;6268;48.188;17.134;2023-11-21T10:40:54;1.88;;;1.00;;
12407;SDS011;6268;48.188;17.134;2023-11-21T10:43:24;2.20;;;1.00;;
12407;SDS011;6268;48.188;17.134;2023-11-21T10:45:54;2.75;;;1.13;;
12407;SDS011;6268;48.188;17.134;2023-11-21T10:48:26;1.30;;;1.10;;
12407;SDS011;6268;48.188;17.134;2023-11-21T10:50:55;2.20;;;1.17;;
12407;SDS011;6268;48.188;17.134;2023-11-21T10:53:27;1.05;;;0.82;;
12407;SDS011;6268;48.188;17.134;2023-11-21T10:56:01;1.13;;;0.50;;
12407;SDS011;6268;48.188;17.134;2023-11-21T10:58:33;1.67;;;0.75;;
12407;SDS011;6268;48.188;17.134;2023-11-21T11:01:03;1.77;;;0.60;;
12407;SDS011;6268;48.188;17.134;2023-11-21T11:03:33;1.65;;;0.88;;
12407;SDS011;6268;48.188;17.134;2023-11-21T11:06:05;2.20;;;0.90;;
12407;SDS011;6268;48.188;17.134;2023-11-21T11:08:39;1.52;;;0.90;;
12407;SDS011;6268;48.188;17.134;2023-11-21T11:11:09;1.58;;;0.77;;
12407;SDS011;6268;48.188;17.134;2023-11-21T11:13:38;2.53;;;1.10;;
12407;SDS011;6268;48.188;17.134;2023-11-21T11:16:10;4.18;;;3.78;;
12407;SDS011;6268;48.188;17.134;2023-11-21T11:18:44;9.68;;;7.40;;
12407;SDS011;6268;48.188;17.134;2023-11-21T11:21:16;4.43;;;3.13;;
12407;SDS011;6268;48.188;17.134;2023-11-21T11:23:58;2.92;;;2.17;;
12407;SDS011;6268;48.188;17.134;2023-11-21T11:26:45;2.25;;;1.67;;
12407;SDS011;6268;48.188;17.134;2023-11-21T11:29:23;2.10;;;1.30;;
12407;SDS011;6268;48.188;17.134;2023-11-21T11:32:02;1.60;;;1.50;;
12407;SDS011;6268;48.188;17.134;2023-11-21T11:34:39;2.20;;;2.00;;
12407;SDS011;6268;48.188;17.134;2023-11-21T11:37:13;2.13;;;1.27;;
12407;SDS011;6268;48.188;17.134;2023-11-21T11:39:43;1.67;;;1.20;;
12407;SDS011;6268;48.188;17.134;2023-11-21T11:42:12;1.20;;;1.10;;
12407;SDS011;6268;48.188;17.134;2023-11-21T11:44:49;1.58;;;0.90;;
12407;SDS011;6268;48.188;17.134;2023-11-21T11:47:24;1.90;;;1.17;;
12407;SDS011;6268;48.188;17.134;2023-11-21T11:49:59;2.13;;;1.17;;
12407;SDS011;6268;48.188;17.134;2023-11-21T11:52:34;1.13;;;0.80;;
12407;SDS011;6268;48.188;17.134;2023-11-21T11:55:07;3.22;;;1.50;;
12407;SDS011;6268;48.188;17.134;2023-11-21T11:57:41;1.95;;;1.15;;
12407;SDS011;6268;48.188;17.134;2023-11-21T12:00:11;0.90;;;0.90;;
12407;SDS011;6268;48.188;17.134;2023-11-21T12:02:48;1.05;;;0.88;;
12407;SDS011;6268;48.188;17.134;2023-11-21T12:05:18;2.00;;;1.27;;
12407;SDS011;6268;48.188;17.134;2023-11-21T12:07:48;1.48;;;1.02;;
12407;SDS011;6268;48.188;17.134;2023-11-21T12:10:21;1.58;;;1.40;;
12407;SDS011;6268;48.188;17.134;2023-11-21T12:12:52;2.50;;;1.50;;
12407;SDS011;6268;48.188;17.134;2023-11-21T12:15:21;1.45;;;1.05;;
12407;SDS011;6268;48.188;17.134;2023-11-21T12:17:52;1.90;;;1.08;;
12407;SDS011;6268;48.188;17.134;2023-11-21T12:20:21;1.50;;;1.40;;
12407;SDS011;6268;48.188;17.134;2023-11-21T12:22:51;1.15;;;1.02;;
12407;SDS011;6268;48.188;17.134;2023-11-21T12:25:22;1.17;;;1.00;;
12407;SDS011;6268;48.188;17.134;2023-11-21T12:27:55;1.08;;;0.65;;
12407;SDS011;6268;48.188;17.134;2023-11-21T12:30:25;1.27;;;1.13;;
12407;SDS011;6268;48.188;17.134;2023-11-21T12:32:57;1.30;;;1.00;;
12407;SDS011;6268;48.188;17.134;2023-11-21T12:35:28;2.22;;;1.42;;
12407;SDS011;6268;48.188;17.134;2023-11-21T12:38:00;1.30;;;1.20;;
12407;SDS011;6268;48.188;17.134;2023-11-21T12:40:32;3.42;;;1.40;;
12407;SDS011;6268;48.188;17.134;2023-11-21T12:43:01;2.35;;;1.40;;
12407;SDS011;6268;48.188;17.134;2023-11-21T12:45:31;2.50;;;1.25;;
12407;SDS011;6268;48.188;17.134;2023-11-21T12:48:00;2.03;;;1.40;;
12407;SDS011;6268;48.188;17.134;2023-11-21T12:50:35;2.50;;;1.33;;
12407;SDS011;6268;48.188;17.134;2023-11-21T12:53:04;3.15;;;1.63;;
12407;SDS011;6268;48.188;17.134;2023-11-21T12:55:36;2.65;;;1.75;;
12407;SDS011;6268;48.188;17.134;2023-11-21T12:58:06;2.33;;;1.77;;
12407;SDS011;6268;48.188;17.134;2023-11-21T13:00:38;3.13;;;2.20;;
12407;SDS011;6268;48.188;17.134;2023-11-21T13:03:09;5.57;;;4.05;;
12407;SDS011;6268;48.188;17.134;2023-11-21T13:05:44;2.92;;;2.63;;
12407;SDS011;6268;48.188;17.134;2023-11-21T13:08:14;3.65;;;1.55;;
12407;SDS011;6268;48.188;17.134;2023-11-21T13:10:48;4.97;;;1.90;;
12407;SDS011;6268;48.188;17.134;2023-11-21T13:13:18;3.05;;;1.92;;
12407;SDS011;6268;48.188;17.134;2023-11-21T13:15:51;2.20;;;1.85;;
12407;SDS011;6268;48.188;17.134;2023-11-21T13:18:22;4.90;;;1.88;;
12407;SDS011;6268;48.188;17.134;2023-11-21T13:20:52;4.25;;;1.90;;
12407;SDS011;6268;48.188;17.134;2023-11-21T13:23:21;3.40;;;1.90;;
12407;SDS011;6268;48.188;17.134;2023-11-21T13:25:51;3.03;;;2.00;;
12407;SDS011;6268;48.188;17.134;2023-11-21T13:28:30;2.38;;;1.90;;
12407;SDS011;6268;48.188;17.134;2023-11-21T13:31:00;2.97;;;2.17;;
12407;SDS011;6268;48.188;17.134;2023-11-21T13:33:37;3.88;;;2.10;;
12407;SDS011;6268;48.188;17.134;2023-11-21T13:36:07;3.25;;;2.30;;
12407;SDS011;6268;48.188;17.134;2023-11-21T13:38:37;2.83;;;2.00;;
12407;SDS011;6268;48.188;17.134;2023-11-21T13:41:11;2.35;;;2.00;;
12407;SDS011;6268;48.188;17.134;2023-11-21T13:43:41;2.80;;;1.77;;
12407;SDS011;6268;48.188;17.134;2023-11-21T13:46:14;3.35;;;2.17;;
12407;SDS011;6268;48.188;17.134;2023-11-21T13:48:49;3.58;;;1.90;;
12407;SDS011;6268;48.188;17.134;2023-11-21T13:51:23;2.70;;;2.05;;
12407;SDS011;6268;48.188;17.134;2023-11-21T13:54:03;4.10;;;2.22;;
12407;SDS011;6268;48.188;17.134;2023-11-21T13:56:37;2.63;;;2.10;;
12407;SDS011;6268;48.188;17.134;2023-11-21T13:59:07;2.92;;;2.10;;
12407;SDS011;6268;48.188;17.134;2023-11-21T14:01:47;5.07;;;3.00;;
12407;SDS011;6268;48.188;17.134;2023-11-21T14:04:24;4.57;;;3.10;;
12407;SDS011;6268;48.188;17.134;2023-11-21T14:07:13;4.13;;;2.15;;
12407;SDS011;6268;48.188;17.134;2023-11-21T14:09:52;2.88;;;2.47;;
12407;SDS011;6268;48.188;17.134;2023-11-21T14:12:22;2.03;;;1.83;;
12407;SDS011;6268;48.188;17.134;2023-11-21T14:14:51;2.58;;;1.80;;
12407;SDS011;6268;48.188;17.134;2023-11-21T14:17:21;2.72;;;2.10;;
12407;SDS011;6268;48.188;17.134;2023-11-21T14:19:51;5.18;;;2.35;;
12407;SDS011;6268;48.188;17.134;2023-11-21T14:22:22;4.85;;;2.08;;
12407;SDS011;6268;48.188;17.134;2023-11-21T14:24:52;2.20;;;1.75;;
12407;SDS011;6268;48.188;17.134;2023-11-21T14:27:23;2.15;;;1.77;;
12407;SDS011;6268;48.188;17.134;2023-11-21T14:29:52;3.10;;;2.30;;
12407;SDS011;6268;48.188;17.134;2023-11-21T14:32:20;3.42;;;2.10;;
12407;SDS011;6268;48.188;17.134;2023-11-21T14:34:49;3.42;;;2.42;;
12407;SDS011;6268;48.188;17.134;2023-11-21T14:37:17;2.60;;;2.40;;
12407;SDS011;6268;48.188;17.134;2023-11-21T14:39:46;4.30;;;2.10;;
12407;SDS011;6268;48.188;17.134;2023-11-21T14:42:16;3.28;;;2.10;;
12407;SDS011;6268;48.188;17.134;2023-11-21T14:44:52;8.15;;;4.97;;
12407;SDS011;6268;48.188;17.134;2023-11-21T14:47:26;10.82;;;6.95;;
12407;SDS011;6268;48.188;17.134;2023-11-21T14:49:55;9.23;;;8.20;;
12407;SDS011;6268;48.188;17.134;2023-11-21T14:52:26;11.27;;;8.32;;
12407;SDS011;6268;48.188;17.134;2023-11-21T14:55:01;10.07;;;6.40;;
12407;SDS011;6268;48.188;17.134;2023-11-21T14:57:46;6.47;;;4.00;;
12407;SDS011;6268;48.188;17.134;2023-11-21T15:00:19;5.72;;;3.05;;
12407;SDS011;6268;48.188;17.134;2023-11-21T15:03:10;3.92;;;2.30;;
12407;SDS011;6268;48.188;17.134;2023-11-21T15:05:57;2.92;;;2.72;;
12407;SDS011;6268;48.188;17.134;2023-11-21T15:08:25;3.33;;;3.03;;
12407;SDS011;6268;48.188;17.134;2023-11-21T15:10:58;2.80;;;2.60;;
12407;SDS011;6268;48.188;17.134;2023-11-21T15:13:25;4.88;;;2.63;;